sensor_id;sensor_type;location;lat;lon;timestamp;temperature;humidity
4052;DHT22;2040;50.924;11.604;2023-07-20T00:01:25;14.10;99.90
4052;DHT22;2040;50.924;11.604;2023-07-20T00:03:51;14.10;99.90
4052;DHT22;2040;50.924;11.604;2023-07-20T00:06:24;14.10;99.90
4052;DHT22;2040;50.924;11.604;2023-07-20T00:08:59;14.10;99.90
4052;DHT22;2040;50.924;11.604;2023-07-20T00:11:30;14.10;99.90
4052;DHT22;2040;50.924;11.604;2023-07-20T00:13:58;14.10;99.90
4052;DHT22;2040;50.924;11.604;2023-07-20T00:16:24;14.10;99.90
4052;DHT22;2040;50.924;11.604;2023-07-20T00:19:03;14.20;99.90
4052;DHT22;2040;50.924;11.604;2023-07-20T00:21:42;14.20;99.90
4052;DHT22;2040;50.924;11.604;2023-07-20T00:24:18;14.20;99.90
4052;DHT22;2040;50.924;11.604;2023-07-20T00:26:44;14.30;99.90
4052;DHT22;2040;50.924;11.604;2023-07-20T00:29:12;14.40;99.90
4052;DHT22;2040;50.924;11.604;2023-07-20T00:31:43;14.40;99.90
4052;DHT22;2040;50.924;11.604;2023-07-20T00:34:24;14.40;99.90
4052;DHT22;2040;50.924;11.604;2023-07-20T00:37:05;14.30;99.90
4052;DHT22;2040;50.924;11.604;2023-07-20T00:39:36;14.20;99.90
4052;DHT22;2040;50.924;11.604;2023-07-20T00:42:02;14.10;99.90
4052;DHT22;2040;50.924;11.604;2023-07-20T00:44:37;14.00;99.90
4052;DHT22;2040;50.924;11.604;2023-07-20T00:47:03;14.10;99.90
4052;DHT22;2040;50.924;11.604;2023-07-20T00:49:29;14.00;99.90
4052;DHT22;2040;50.924;11.604;2023-07-20T00:51:58;13.80;99.90
4052;DHT22;2040;50.924;11.604;2023-07-20T00:54:30;13.80;99.90
4052;DHT22;2040;50.924;11.604;2023-07-20T00:57:04;13.70;99.90
4052;DHT22;2040;50.924;11.604;2023-07-20T00:59:31;13.80;99.90
4052;DHT22;2040;50.924;11.604;2023-07-20T01:01:57;13.70;99.90
4052;DHT22;2040;50.924;11.604;2023-07-20T01:04:26;13.70;99.90
4052;DHT22;2040;50.924;11.604;2023-07-20T01:07:11;13.60;99.90
4052;DHT22;2040;50.924;11.604;2023-07-20T01:12:15;13.70;99.90
4052;DHT22;2040;50.924;11.604;2023-07-20T01:14:44;13.80;99.90
4052;DHT22;2040;50.924;11.604;2023-07-20T01:17:10;13.70;99.90
4052;DHT22;2040;50.924;11.604;2023-07-20T01:19:36;13.70;99.90
4052;DHT22;2040;50.924;11.604;2023-07-20T01:22:21;13.80;99.90
4052;DHT22;2040;50.924;11.604;2023-07-20T01:30:43;13.60;99.90
4052;DHT22;2040;50.924;11.604;2023-07-20T01:33:13;13.60;99.90
4052;DHT22;2040;50.924;11.604;2023-07-20T01:35:41;13.50;99.90
4052;DHT22;2040;50.924;11.604;2023-07-20T01:38:09;13.50;99.90
4052;DHT22;2040;50.924;11.604;2023-07-20T01:40:35;13.40;99.90
4052;DHT22;2040;50.924;11.604;2023-07-20T01:43:03;13.50;99.90
4052;DHT22;2040;50.924;11.604;2023-07-20T01:45:29;13.50;99.90
4052;DHT22;2040;50.924;11.604;2023-07-20T01:47:54;13.50;99.90
4052;DHT22;2040;50.924;11.604;2023-07-20T01:50:20;13.50;99.90
4052;DHT22;2040;50.924;11.604;2023-07-20T01:52:46;13.40;99.90
4052;DHT22;2040;50.924;11.604;2023-07-20T01:55:11;13.50;99.90
4052;DHT22;2040;50.924;11.604;2023-07-20T01:57:37;13.50;99.90
4052;DHT22;2040;50.924;11.604;2023-07-20T02:00:03;13.50;99.90
4052;DHT22;2040;50.924;11.604;2023-07-20T02:02:29;13.40;99.90
4052;DHT22;2040;50.924;11.604;2023-07-20T02:04:55;13.70;99.90
4052;DHT22;2040;50.924;11.604;2023-07-20T02:07:21;13.70;99.90
4052;DHT22;2040;50.924;11.604;2023-07-20T02:09:47;13.60;99.90
4052;DHT22;2040;50.924;11.604;2023-07-20T02:12:12;13.60;99.90
4052;DHT22;2040;50.924;11.604;2023-07-20T02:14:42;13.60;99.90
4052;DHT22;2040;50.924;11.604;2023-07-20T02:17:12;13.60;99.90
4052;DHT22;2040;50.924;11.604;2023-07-20T02:20:20;13.70;99.90
4052;DHT22;2040;50.924;11.604;2023-07-20T02:22:55;13.70;99.90
4052;DHT22;2040;50.924;11.604;2023-07-20T02:25:24;14.00;99.90
4052;DHT22;2040;50.924;11.604;2023-07-20T02:27:56;13.90;99.90
4052;DHT22;2040;50.924;11.604;2023-07-20T02:30:27;13.80;99.90
4052;DHT22;2040;50.924;11.604;2023-07-20T02:33:03;13.70;99.90
4052;DHT22;2040;50.924;11.604;2023-07-20T02:35:39;13.70;99.90
4052;DHT22;2040;50.924;11.604;2023-07-20T02:38:19;13.80;99.90
4052;DHT22;2040;50.924;11.604;2023-07-20T02:41:18;13.80;99.90
4052;DHT22;2040;50.924;11.604;2023-07-20T02:47:23;13.90;99.90
4052;DHT22;2040;50.924;11.604;2023-07-20T02:49:48;14.00;99.90
4052;DHT22;2040;50.924;11.604;2023-07-20T02:52:14;14.00;99.90
4052;DHT22;2040;50.924;11.604;2023-07-20T02:54:40;14.00;99.90
4052;DHT22;2040;50.924;11.604;2023-07-20T02:57:06;14.00;99.90
4052;DHT22;2040;50.924;11.604;2023-07-20T02:59:31;14.00;99.90
4052;DHT22;2040;50.924;11.604;2023-07-20T03:01:57;14.00;99.90
4052;DHT22;2040;50.924;11.604;2023-07-20T03:04:25;13.80;99.90
4052;DHT22;2040;50.924;11.604;2023-07-20T03:06:51;13.70;99.90
4052;DHT22;2040;50.924;11.604;2023-07-20T03:09:16;13.70;99.90
4052;DHT22;2040;50.924;11.604;2023-07-20T03:11:42;13.70;99.90
4052;DHT22;2040;50.924;11.604;2023-07-20T03:14:08;13.70;99.90
4052;DHT22;2040;50.924;11.604;2023-07-20T03:16:33;13.70;99.90
4052;DHT22;2040;50.924;11.604;2023-07-20T03:19:37;13.70;99.90
4052;DHT22;2040;50.924;11.604;2023-07-20T03:22:07;13.70;99.90
4052;DHT22;2040;50.924;11.604;2023-07-20T03:24:33;13.70;99.90
4052;DHT22;2040;50.924;11.604;2023-07-20T03:26:59;13.60;99.90
4052;DHT22;2040;50.924;11.604;2023-07-20T03:29:27;13.60;99.90
4052;DHT22;2040;50.924;11.604;2023-07-20T03:35:08;13.70;99.90
4052;DHT22;2040;50.924;11.604;2023-07-20T03:37:43;13.70;99.90
4052;DHT22;2040;50.924;11.604;2023-07-20T03:40:48;13.70;99.90
4052;DHT22;2040;50.924;11.604;2023-07-20T03:43:38;13.70;99.90
4052;DHT22;2040;50.924;11.604;2023-07-20T03:46:24;13.80;99.90
4052;DHT22;2040;50.924;11.604;2023-07-20T03:49:05;13.80;99.90
4052;DHT22;2040;50.924;11.604;2023-07-20T03:51:32;13.80;99.90
4052;DHT22;2040;50.924;11.604;2023-07-20T03:56:58;13.80;99.90
4052;DHT22;2040;50.924;11.604;2023-07-20T04:00:00;13.80;99.90
4052;DHT22;2040;50.924;11.604;2023-07-20T04:02:38;13.90;99.90
4052;DHT22;2040;50.924;11.604;2023-07-20T04:08:29;13.90;99.90
4052;DHT22;2040;50.924;11.604;2023-07-20T04:11:07;13.90;99.90
4052;DHT22;2040;50.924;11.604;2023-07-20T04:14:07;13.90;99.90
4052;DHT22;2040;50.924;11.604;2023-07-20T04:16:33;13.90;99.90
4052;DHT22;2040;50.924;11.604;2023-07-20T04:19:11;13.90;99.90
4052;DHT22;2040;50.924;11.604;2023-07-20T04:21:42;13.90;99.90
4052;DHT22;2040;50.924;11.604;2023-07-20T04:24:15;14.00;99.90
4052;DHT22;2040;50.924;11.604;2023-07-20T04:26:50;14.10;99.90
4052;DHT22;2040;50.924;11.604;2023-07-20T04:29:29;14.20;99.90
4052;DHT22;2040;50.924;11.604;2023-07-20T04:34:42;14.30;99.90
4052;DHT22;2040;50.924;11.604;2023-07-20T04:37:11;14.50;99.90
4052;DHT22;2040;50.924;11.604;2023-07-20T04:40:09;14.50;99.90
4052;DHT22;2040;50.924;11.604;2023-07-20T04:42:44;14.40;99.90
4052;DHT22;2040;50.924;11.604;2023-07-20T04:45:09;14.40;99.90
4052;DHT22;2040;50.924;11.604;2023-07-20T04:47:35;14.40;99.90
4052;DHT22;2040;50.924;11.604;2023-07-20T04:50:00;14.40;99.90
4052;DHT22;2040;50.924;11.604;2023-07-20T04:52:26;14.40;99.90
4052;DHT22;2040;50.924;11.604;2023-07-20T04:54:52;14.50;99.90
4052;DHT22;2040;50.924;11.604;2023-07-20T04:57:17;14.50;99.90
4052;DHT22;2040;50.924;11.604;2023-07-20T04:59:43;14.50;99.90
4052;DHT22;2040;50.924;11.604;2023-07-20T05:02:08;14.60;99.90
4052;DHT22;2040;50.924;11.604;2023-07-20T05:04:34;14.80;99.90
4052;DHT22;2040;50.924;11.604;2023-07-20T05:06:59;14.70;99.90
4052;DHT22;2040;50.924;11.604;2023-07-20T05:09:25;14.70;99.90
4052;DHT22;2040;50.924;11.604;2023-07-20T05:11:51;14.70;99.90
4052;DHT22;2040;50.924;11.604;2023-07-20T05:14:16;14.70;99.90
4052;DHT22;2040;50.924;11.604;2023-07-20T05:16:42;14.80;99.90
4052;DHT22;2040;50.924;11.604;2023-07-20T05:19:07;14.80;99.90
4052;DHT22;2040;50.924;11.604;2023-07-20T05:21:33;15.00;99.90
4052;DHT22;2040;50.924;11.604;2023-07-20T05:23:58;15.00;99.90
4052;DHT22;2040;50.924;11.604;2023-07-20T05:26:24;15.00;99.90
4052;DHT22;2040;50.924;11.604;2023-07-20T05:28:49;15.00;99.90
4052;DHT22;2040;50.924;11.604;2023-07-20T05:31:15;15.10;99.90
4052;DHT22;2040;50.924;11.604;2023-07-20T05:33:41;15.10;99.90
4052;DHT22;2040;50.924;11.604;2023-07-20T05:36:06;15.10;99.90
4052;DHT22;2040;50.924;11.604;2023-07-20T05:38:32;15.20;99.90
4052;DHT22;2040;50.924;11.604;2023-07-20T05:41:00;15.20;99.90
4052;DHT22;2040;50.924;11.604;2023-07-20T05:43:29;15.20;99.90
4052;DHT22;2040;50.924;11.604;2023-07-20T05:45:55;15.20;99.90
4052;DHT22;2040;50.924;11.604;2023-07-20T05:48:21;15.20;99.90
4052;DHT22;2040;50.924;11.604;2023-07-20T05:50:46;15.40;99.90
4052;DHT22;2040;50.924;11.604;2023-07-20T05:53:12;15.50;99.90
4052;DHT22;2040;50.924;11.604;2023-07-20T05:55:37;15.70;99.90
4052;DHT22;2040;50.924;11.604;2023-07-20T05:58:05;15.70;99.90
4052;DHT22;2040;50.924;11.604;2023-07-20T06:00:30;15.80;99.90
4052;DHT22;2040;50.924;11.604;2023-07-20T06:02:56;15.90;99.90
4052;DHT22;2040;50.924;11.604;2023-07-20T06:05:22;15.80;99.90
4052;DHT22;2040;50.924;11.604;2023-07-20T06:07:49;15.90;99.90
4052;DHT22;2040;50.924;11.604;2023-07-20T06:10:15;16.00;99.90
4052;DHT22;2040;50.924;11.604;2023-07-20T06:12:41;15.90;99.90
4052;DHT22;2040;50.924;11.604;2023-07-20T06:15:27;15.90;99.90
4052;DHT22;2040;50.924;11.604;2023-07-20T06:17:54;15.90;99.90
4052;DHT22;2040;50.924;11.604;2023-07-20T06:20:21;15.90;99.90
4052;DHT22;2040;50.924;11.604;2023-07-20T06:22:47;16.00;99.90
4052;DHT22;2040;50.924;11.604;2023-07-20T06:25:13;16.20;99.90
4052;DHT22;2040;50.924;11.604;2023-07-20T06:27:39;16.20;99.90
4052;DHT22;2040;50.924;11.604;2023-07-20T06:30:05;16.30;99.90
4052;DHT22;2040;50.924;11.604;2023-07-20T06:32:30;16.40;99.90
4052;DHT22;2040;50.924;11.604;2023-07-20T06:34:56;16.40;99.90
4052;DHT22;2040;50.924;11.604;2023-07-20T06:37:22;16.30;99.90
4052;DHT22;2040;50.924;11.604;2023-07-20T06:39:48;16.30;99.90
4052;DHT22;2040;50.924;11.604;2023-07-20T06:42:13;16.20;99.90
4052;DHT22;2040;50.924;11.604;2023-07-20T06:44:39;16.10;99.90
4052;DHT22;2040;50.924;11.604;2023-07-20T06:47:05;16.20;99.90
4052;DHT22;2040;50.924;11.604;2023-07-20T06:49:30;16.30;99.90
4052;DHT22;2040;50.924;11.604;2023-07-20T06:51:56;16.50;99.90
4052;DHT22;2040;50.924;11.604;2023-07-20T06:54:22;16.70;99.90
4052;DHT22;2040;50.924;11.604;2023-07-20T06:56:48;16.80;99.90
4052;DHT22;2040;50.924;11.604;2023-07-20T06:59:13;17.00;99.90
4052;DHT22;2040;50.924;11.604;2023-07-20T07:01:39;17.00;99.90
4052;DHT22;2040;50.924;11.604;2023-07-20T07:04:04;16.90;99.90
4052;DHT22;2040;50.924;11.604;2023-07-20T07:06:31;17.10;99.90
4052;DHT22;2040;50.924;11.604;2023-07-20T07:08:57;17.20;99.90
4052;DHT22;2040;50.924;11.604;2023-07-20T07:11:22;17.40;99.90
4052;DHT22;2040;50.924;11.604;2023-07-20T07:13:48;17.50;99.90
4052;DHT22;2040;50.924;11.604;2023-07-20T07:16:16;17.60;99.90
4052;DHT22;2040;50.924;11.604;2023-07-20T07:18:45;17.60;99.90
4052;DHT22;2040;50.924;11.604;2023-07-20T07:21:10;17.60;99.90
4052;DHT22;2040;50.924;11.604;2023-07-20T07:23:37;17.60;99.90
4052;DHT22;2040;50.924;11.604;2023-07-20T07:26:03;17.70;99.90
4052;DHT22;2040;50.924;11.604;2023-07-20T07:28:28;17.60;99.90
4052;DHT22;2040;50.924;11.604;2023-07-20T07:30:55;17.80;99.90
4052;DHT22;2040;50.924;11.604;2023-07-20T07:33:22;17.80;99.90
4052;DHT22;2040;50.924;11.604;2023-07-20T07:35:48;17.80;99.90
4052;DHT22;2040;50.924;11.604;2023-07-20T07:38:14;17.70;99.90
4052;DHT22;2040;50.924;11.604;2023-07-20T07:40:40;17.60;99.90
4052;DHT22;2040;50.924;11.604;2023-07-20T07:43:05;17.60;99.90
4052;DHT22;2040;50.924;11.604;2023-07-20T07:45:34;17.50;99.90
4052;DHT22;2040;50.924;11.604;2023-07-20T07:48:01;17.60;99.90
4052;DHT22;2040;50.924;11.604;2023-07-20T07:50:27;17.80;99.90
4052;DHT22;2040;50.924;11.604;2023-07-20T07:52:53;17.90;99.90
4052;DHT22;2040;50.924;11.604;2023-07-20T07:55:19;17.90;99.90
4052;DHT22;2040;50.924;11.604;2023-07-20T07:57:45;17.90;99.90
4052;DHT22;2040;50.924;11.604;2023-07-20T08:00:13;18.00;99.90
4052;DHT22;2040;50.924;11.604;2023-07-20T08:02:41;18.10;99.90
4052;DHT22;2040;50.924;11.604;2023-07-20T08:05:07;18.20;99.90
4052;DHT22;2040;50.924;11.604;2023-07-20T08:07:33;18.30;99.90
4052;DHT22;2040;50.924;11.604;2023-07-20T08:09:58;18.30;99.90
4052;DHT22;2040;50.924;11.604;2023-07-20T08:12:26;18.10;99.90
4052;DHT22;2040;50.924;11.604;2023-07-20T08:14:51;18.10;99.90
4052;DHT22;2040;50.924;11.604;2023-07-20T08:17:17;18.20;99.90
4052;DHT22;2040;50.924;11.604;2023-07-20T08:19:43;18.40;99.90
4052;DHT22;2040;50.924;11.604;2023-07-20T08:22:09;18.80;99.90
4052;DHT22;2040;50.924;11.604;2023-07-20T08:24:38;19.10;99.90
4052;DHT22;2040;50.924;11.604;2023-07-20T08:27:04;19.30;99.90
4052;DHT22;2040;50.924;11.604;2023-07-20T08:29:30;19.20;99.90
4052;DHT22;2040;50.924;11.604;2023-07-20T08:31:56;19.00;99.90
4052;DHT22;2040;50.924;11.604;2023-07-20T08:34:21;18.90;99.90
4052;DHT22;2040;50.924;11.604;2023-07-20T08:36:47;19.10;99.90
4052;DHT22;2040;50.924;11.604;2023-07-20T08:39:12;19.60;99.90
4052;DHT22;2040;50.924;11.604;2023-07-20T08:41:38;19.60;99.90
4052;DHT22;2040;50.924;11.604;2023-07-20T08:44:05;19.50;99.90
4052;DHT22;2040;50.924;11.604;2023-07-20T08:46:31;19.20;99.90
4052;DHT22;2040;50.924;11.604;2023-07-20T08:48:57;19.20;99.90
4052;DHT22;2040;50.924;11.604;2023-07-20T08:51:23;19.30;99.90
4052;DHT22;2040;50.924;11.604;2023-07-20T08:53:51;19.60;99.90
4052;DHT22;2040;50.924;11.604;2023-07-20T08:56:18;19.70;99.90
4052;DHT22;2040;50.924;11.604;2023-07-20T08:58:45;19.50;99.90
4052;DHT22;2040;50.924;11.604;2023-07-20T09:01:12;19.70;99.90
4052;DHT22;2040;50.924;11.604;2023-07-20T09:03:38;20.00;99.90
4052;DHT22;2040;50.924;11.604;2023-07-20T09:06:05;19.90;99.90
4052;DHT22;2040;50.924;11.604;2023-07-20T09:08:31;19.50;99.90
4052;DHT22;2040;50.924;11.604;2023-07-20T09:10:57;19.60;99.90
4052;DHT22;2040;50.924;11.604;2023-07-20T09:13:25;19.50;99.90
4052;DHT22;2040;50.924;11.604;2023-07-20T09:15:54;19.30;99.90
4052;DHT22;2040;50.924;11.604;2023-07-20T09:18:28;19.10;99.90
4052;DHT22;2040;50.924;11.604;2023-07-20T09:21:01;18.80;99.90
4052;DHT22;2040;50.924;11.604;2023-07-20T09:23:32;18.40;99.90
4052;DHT22;2040;50.924;11.604;2023-07-20T09:25:58;17.90;99.90
4052;DHT22;2040;50.924;11.604;2023-07-20T09:28:24;17.40;99.90
4052;DHT22;2040;50.924;11.604;2023-07-20T09:30:49;17.40;99.90
4052;DHT22;2040;50.924;11.604;2023-07-20T09:33:19;17.50;99.90
4052;DHT22;2040;50.924;11.604;2023-07-20T09:35:46;17.60;99.90
4052;DHT22;2040;50.924;11.604;2023-07-20T09:38:12;18.00;99.90
4052;DHT22;2040;50.924;11.604;2023-07-20T09:40:40;18.40;99.90
4052;DHT22;2040;50.924;11.604;2023-07-20T09:43:08;18.80;99.90
4052;DHT22;2040;50.924;11.604;2023-07-20T09:45:44;19.30;99.90
4052;DHT22;2040;50.924;11.604;2023-07-20T09:48:11;19.60;99.90
4052;DHT22;2040;50.924;11.604;2023-07-20T09:50:49;19.70;99.90
4052;DHT22;2040;50.924;11.604;2023-07-20T09:53:15;19.70;99.90
4052;DHT22;2040;50.924;11.604;2023-07-20T09:55:44;19.70;99.90
4052;DHT22;2040;50.924;11.604;2023-07-20T09:58:10;19.40;99.90
4052;DHT22;2040;50.924;11.604;2023-07-20T10:00:37;19.30;99.90
4052;DHT22;2040;50.924;11.604;2023-07-20T10:03:04;19.20;99.90
4052;DHT22;2040;50.924;11.604;2023-07-20T10:05:36;19.10;99.90
4052;DHT22;2040;50.924;11.604;2023-07-20T10:08:04;19.10;99.90
4052;DHT22;2040;50.924;11.604;2023-07-20T10:10:33;19.00;99.90
4052;DHT22;2040;50.924;11.604;2023-07-20T10:13:01;18.90;99.90
4052;DHT22;2040;50.924;11.604;2023-07-20T10:15:37;18.60;99.90
4052;DHT22;2040;50.924;11.604;2023-07-20T10:18:19;18.40;99.90
4052;DHT22;2040;50.924;11.604;2023-07-20T10:20:51;18.20;99.90
4052;DHT22;2040;50.924;11.604;2023-07-20T10:23:17;18.20;99.90
4052;DHT22;2040;50.924;11.604;2023-07-20T10:25:43;18.20;99.90
4052;DHT22;2040;50.924;11.604;2023-07-20T10:28:10;18.30;99.90
4052;DHT22;2040;50.924;11.604;2023-07-20T10:30:39;18.20;99.90
4052;DHT22;2040;50.924;11.604;2023-07-20T10:33:05;18.10;99.90
4052;DHT22;2040;50.924;11.604;2023-07-20T10:35:57;17.70;99.90
4052;DHT22;2040;50.924;11.604;2023-07-20T10:38:42;17.20;99.90
4052;DHT22;2040;50.924;11.604;2023-07-20T10:41:50;16.70;99.90
4052;DHT22;2040;50.924;11.604;2023-07-20T10:44:30;16.50;99.90
4052;DHT22;2040;50.924;11.604;2023-07-20T10:47:12;16.40;99.90
4052;DHT22;2040;50.924;11.604;2023-07-20T10:50:12;16.40;99.90
4052;DHT22;2040;50.924;11.604;2023-07-20T10:53:04;16.40;99.90
4052;DHT22;2040;50.924;11.604;2023-07-20T10:55:43;16.40;99.90
4052;DHT22;2040;50.924;11.604;2023-07-20T10:58:22;16.50;99.90
4052;DHT22;2040;50.924;11.604;2023-07-20T11:01:36;16.40;99.90
4052;DHT22;2040;50.924;11.604;2023-07-20T11:04:11;16.30;99.90
4052;DHT22;2040;50.924;11.604;2023-07-20T11:10:45;16.30;99.90
4052;DHT22;2040;50.924;11.604;2023-07-20T11:16:54;16.50;99.90
4052;DHT22;2040;50.924;11.604;2023-07-20T11:19:48;16.80;99.90
4052;DHT22;2040;50.924;11.604;2023-07-20T11:22:38;17.00;99.90
4052;DHT22;2040;50.924;11.604;2023-07-20T11:25:26;17.20;99.90
4052;DHT22;2040;50.924;11.604;2023-07-20T11:28:22;17.20;99.90
4052;DHT22;2040;50.924;11.604;2023-07-20T11:31:02;17.40;99.90
4052;DHT22;2040;50.924;11.604;2023-07-20T11:33:28;17.50;99.90
4052;DHT22;2040;50.924;11.604;2023-07-20T11:36:22;18.00;99.90
4052;DHT22;2040;50.924;11.604;2023-07-20T11:50:02;19.60;99.90
4052;DHT22;2040;50.924;11.604;2023-07-20T11:52:59;19.60;99.90
4052;DHT22;2040;50.924;11.604;2023-07-20T11:55:26;19.70;99.90
4052;DHT22;2040;50.924;11.604;2023-07-20T12:01:12;19.60;99.90
4052;DHT22;2040;50.924;11.604;2023-07-20T12:04:25;19.50;99.90
4052;DHT22;2040;50.924;11.604;2023-07-20T12:10:24;19.00;99.90
4052;DHT22;2040;50.924;11.604;2023-07-20T12:12:50;18.90;99.90
4052;DHT22;2040;50.924;11.604;2023-07-20T12:15:21;18.70;99.90
4052;DHT22;2040;50.924;11.604;2023-07-20T12:20:47;18.50;99.90
4052;DHT22;2040;50.924;11.604;2023-07-20T12:23:52;18.30;99.90
4052;DHT22;2040;50.924;11.604;2023-07-20T12:27:06;18.20;99.90
4052;DHT22;2040;50.924;11.604;2023-07-20T12:29:38;18.10;99.90
4052;DHT22;2040;50.924;11.604;2023-07-20T12:32:08;18.00;99.90
4052;DHT22;2040;50.924;11.604;2023-07-20T12:34:39;18.10;99.90
4052;DHT22;2040;50.924;11.604;2023-07-20T12:37:30;18.30;99.90
4052;DHT22;2040;50.924;11.604;2023-07-20T12:40:45;18.40;99.90
4052;DHT22;2040;50.924;11.604;2023-07-20T12:43:50;18.60;99.90
4052;DHT22;2040;50.924;11.604;2023-07-20T12:47:08;18.90;99.90
4052;DHT22;2040;50.924;11.604;2023-07-20T12:49:55;19.10;99.90
4052;DHT22;2040;50.924;11.604;2023-07-20T12:52:26;19.20;99.90
4052;DHT22;2040;50.924;11.604;2023-07-20T12:55:00;19.50;99.90
4052;DHT22;2040;50.924;11.604;2023-07-20T12:57:53;19.70;99.90
4052;DHT22;2040;50.924;11.604;2023-07-20T13:01:11;20.10;99.90
4052;DHT22;2040;50.924;11.604;2023-07-20T13:04:22;20.60;99.90
4052;DHT22;2040;50.924;11.604;2023-07-20T13:13:43;20.60;99.90
4052;DHT22;2040;50.924;11.604;2023-07-20T13:16:13;20.80;99.90
4052;DHT22;2040;50.924;11.604;2023-07-20T13:22:41;20.70;99.90
4052;DHT22;2040;50.924;11.604;2023-07-20T13:25:24;20.80;99.90
4052;DHT22;2040;50.924;11.604;2023-07-20T13:35:23;20.70;99.90
4052;DHT22;2040;50.924;11.604;2023-07-20T13:38:35;21.80;99.90
4052;DHT22;2040;50.924;11.604;2023-07-20T13:41:06;21.70;99.90
4052;DHT22;2040;50.924;11.604;2023-07-20T13:44:01;21.90;99.90
4052;DHT22;2040;50.924;11.604;2023-07-20T13:47:00;22.40;99.90
4052;DHT22;2040;50.924;11.604;2023-07-20T13:49:44;22.80;99.90
4052;DHT22;2040;50.924;11.604;2023-07-20T13:55:20;23.20;99.90
4052;DHT22;2040;50.924;11.604;2023-07-20T14:02:15;23.00;99.90
4052;DHT22;2040;50.924;11.604;2023-07-20T14:05:18;22.70;99.90
4052;DHT22;2040;50.924;11.604;2023-07-20T14:08:17;22.10;99.90
4052;DHT22;2040;50.924;11.604;2023-07-20T14:11:48;21.70;99.90
4052;DHT22;2040;50.924;11.604;2023-07-20T14:18:00;21.40;99.90
4052;DHT22;2040;50.924;11.604;2023-07-20T14:20:26;21.50;99.90
4052;DHT22;2040;50.924;11.604;2023-07-20T15:59:35;21.90;99.90
4052;DHT22;2040;50.924;11.604;2023-07-20T16:03:22;21.70;99.90
4052;DHT22;2040;50.924;11.604;2023-07-20T21:27:18;15.50;99.90
4052;DHT22;2040;50.924;11.604;2023-07-20T21:32:44;15.30;99.90
4052;DHT22;2040;50.924;11.604;2023-07-20T21:35:10;15.20;99.90
4052;DHT22;2040;50.924;11.604;2023-07-20T21:37:54;15.20;99.90
4052;DHT22;2040;50.924;11.604;2023-07-20T21:40:24;15.20;99.90
4052;DHT22;2040;50.924;11.604;2023-07-20T21:43:06;15.30;99.90
4052;DHT22;2040;50.924;11.604;2023-07-20T21:45:32;15.70;99.90
4052;DHT22;2040;50.924;11.604;2023-07-20T21:48:01;15.80;99.90
4052;DHT22;2040;50.924;11.604;2023-07-20T21:50:35;16.00;99.90
4052;DHT22;2040;50.924;11.604;2023-07-20T21:53:19;16.00;99.90
4052;DHT22;2040;50.924;11.604;2023-07-20T21:55:53;15.80;99.90
4052;DHT22;2040;50.924;11.604;2023-07-20T21:58:28;15.50;99.90
4052;DHT22;2040;50.924;11.604;2023-07-20T22:01:42;15.30;99.90
4052;DHT22;2040;50.924;11.604;2023-07-20T22:04:09;15.20;99.90
4052;DHT22;2040;50.924;11.604;2023-07-20T22:06:35;15.00;99.90
4052;DHT22;2040;50.924;11.604;2023-07-20T22:09:06;14.90;99.90
4052;DHT22;2040;50.924;11.604;2023-07-20T22:11:35;14.90;99.90
4052;DHT22;2040;50.924;11.604;2023-07-20T22:14:18;14.80;99.90
4052;DHT22;2040;50.924;11.604;2023-07-20T22:16:44;14.80;99.90
4052;DHT22;2040;50.924;11.604;2023-07-20T22:19:10;14.70;99.90
4052;DHT22;2040;50.924;11.604;2023-07-20T22:21:38;14.60;99.90
4052;DHT22;2040;50.924;11.604;2023-07-20T22:24:08;14.60;99.90
4052;DHT22;2040;50.924;11.604;2023-07-20T22:26:40;14.50;99.90
4052;DHT22;2040;50.924;11.604;2023-07-20T22:29:19;14.50;99.90
4052;DHT22;2040;50.924;11.604;2023-07-20T22:31:46;14.50;99.90
4052;DHT22;2040;50.924;11.604;2023-07-20T22:34:12;14.40;99.90
4052;DHT22;2040;50.924;11.604;2023-07-20T22:36:37;14.40;99.90
4052;DHT22;2040;50.924;11.604;2023-07-20T22:39:03;14.30;99.90
4052;DHT22;2040;50.924;11.604;2023-07-20T22:41:30;14.30;99.90
4052;DHT22;2040;50.924;11.604;2023-07-20T22:43:56;14.20;99.90
4052;DHT22;2040;50.924;11.604;2023-07-20T22:46:22;14.20;99.90
